sensor_id;sensor_type;location;lat;lon;timestamp;P1;durP1;ratioP1;P2;durP2;ratioP2
3959;SDS011;1994;48.640;8.894;2023-01-19T00:01:07;5.53;;;4.90;;
3959;SDS011;1994;48.640;8.894;2023-01-19T00:03:33;9.93;;;6.80;;
3959;SDS011;1994;48.640;8.894;2023-01-19T00:06:07;19.67;;;6.83;;
3959;SDS011;1994;48.640;8.894;2023-01-19T00:08:33;7.33;;;5.90;;
3959;SDS011;1994;48.640;8.894;2023-01-19T00:11:00;9.77;;;6.30;;
3959;SDS011;1994;48.640;8.894;2023-01-19T00:13:29;8.83;;;5.97;;
3959;SDS011;1994;48.640;8.894;2023-01-19T00:15:55;9.00;;;7.10;;
3959;SDS011;1994;48.640;8.894;2023-01-19T00:18:22;23.33;;;6.50;;
3959;SDS011;1994;48.640;8.894;2023-01-19T00:20:48;9.77;;;5.80;;
3959;SDS011;1994;48.640;8.894;2023-01-19T00:23:14;9.57;;;6.67;;
3959;SDS011;1994;48.640;8.894;2023-01-19T00:25:41;7.73;;;6.00;;
3959;SDS011;1994;48.640;8.894;2023-01-19T00:28:10;14.43;;;6.63;;
3959;SDS011;1994;48.640;8.894;2023-01-19T00:30:39;12.23;;;6.27;;
3959;SDS011;1994;48.640;8.894;2023-01-19T00:33:06;10.10;;;5.83;;
3959;SDS011;1994;48.640;8.894;2023-01-19T00:35:34;9.10;;;6.03;;
3959;SDS011;1994;48.640;8.894;2023-01-19T00:38:00;8.80;;;5.50;;
3959;SDS011;1994;48.640;8.894;2023-01-19T00:40:27;16.00;;;6.97;;
3959;SDS011;1994;48.640;8.894;2023-01-19T00:42:53;7.90;;;5.60;;
3959;SDS011;1994;48.640;8.894;2023-01-19T00:45:19;8.13;;;6.73;;
3959;SDS011;1994;48.640;8.894;2023-01-19T00:47:51;13.37;;;6.30;;
3959;SDS011;1994;48.640;8.894;2023-01-19T00:50:24;12.67;;;6.27;;
3959;SDS011;1994;48.640;8.894;2023-01-19T00:52:55;7.20;;;5.43;;
3959;SDS011;1994;48.640;8.894;2023-01-19T00:55:24;10.80;;;7.40;;
3959;SDS011;1994;48.640;8.894;2023-01-19T00:57:52;10.70;;;6.80;;
3959;SDS011;1994;48.640;8.894;2023-01-19T01:00:19;12.07;;;6.07;;
3959;SDS011;1994;48.640;8.894;2023-01-19T01:02:46;6.23;;;5.20;;
3959;SDS011;1994;48.640;8.894;2023-01-19T01:05:14;8.50;;;6.83;;
3959;SDS011;1994;48.640;8.894;2023-01-19T01:07:41;5.93;;;4.90;;
3959;SDS011;1994;48.640;8.894;2023-01-19T01:12:47;7.10;;;6.13;;
3959;SDS011;1994;48.640;8.894;2023-01-19T01:15:14;12.17;;;7.23;;
3959;SDS011;1994;48.640;8.894;2023-01-19T01:17:42;7.87;;;5.33;;
3959;SDS011;1994;48.640;8.894;2023-01-19T01:22:42;7.87;;;5.73;;
3959;SDS011;1994;48.640;8.894;2023-01-19T01:25:16;7.87;;;5.23;;
3959;SDS011;1994;48.640;8.894;2023-01-19T01:27:47;8.80;;;6.07;;
3959;SDS011;1994;48.640;8.894;2023-01-19T01:30:13;6.00;;;4.40;;
3959;SDS011;1994;48.640;8.894;2023-01-19T01:32:40;5.07;;;4.57;;
3959;SDS011;1994;48.640;8.894;2023-01-19T01:35:07;11.10;;;5.80;;
3959;SDS011;1994;48.640;8.894;2023-01-19T01:37:35;5.53;;;4.20;;
3959;SDS011;1994;48.640;8.894;2023-01-19T01:40:01;4.87;;;3.63;;
3959;SDS011;1994;48.640;8.894;2023-01-19T01:42:31;9.40;;;5.67;;
3959;SDS011;1994;48.640;8.894;2023-01-19T01:45:45;10.83;;;4.83;;
3959;SDS011;1994;48.640;8.894;2023-01-19T01:48:19;8.47;;;4.90;;
3959;SDS011;1994;48.640;8.894;2023-01-19T01:50:55;7.97;;;5.80;;
3959;SDS011;1994;48.640;8.894;2023-01-19T01:53:48;6.40;;;4.70;;
3959;SDS011;1994;48.640;8.894;2023-01-19T01:56:51;6.93;;;4.10;;
3959;SDS011;1994;48.640;8.894;2023-01-19T01:59:22;5.73;;;3.77;;
3959;SDS011;1994;48.640;8.894;2023-01-19T02:02:00;12.23;;;5.37;;
3959;SDS011;1994;48.640;8.894;2023-01-19T02:05:01;6.17;;;5.33;;
3959;SDS011;1994;48.640;8.894;2023-01-19T02:11:02;6.90;;;4.00;;
3959;SDS011;1994;48.640;8.894;2023-01-19T02:13:48;6.00;;;5.30;;
3959;SDS011;1994;48.640;8.894;2023-01-19T02:16:15;9.67;;;5.33;;
3959;SDS011;1994;48.640;8.894;2023-01-19T02:18:41;9.30;;;5.33;;
3959;SDS011;1994;48.640;8.894;2023-01-19T02:24:16;7.37;;;4.93;;
3959;SDS011;1994;48.640;8.894;2023-01-19T02:26:43;7.10;;;5.27;;
3959;SDS011;1994;48.640;8.894;2023-01-19T02:29:12;6.73;;;5.07;;
3959;SDS011;1994;48.640;8.894;2023-01-19T02:31:43;7.73;;;5.57;;
3959;SDS011;1994;48.640;8.894;2023-01-19T02:34:11;12.20;;;5.93;;
3959;SDS011;1994;48.640;8.894;2023-01-19T02:42:14;9.70;;;5.50;;
3959;SDS011;1994;48.640;8.894;2023-01-19T02:44:47;10.17;;;5.60;;
3959;SDS011;1994;48.640;8.894;2023-01-19T02:47:15;8.60;;;4.83;;
3959;SDS011;1994;48.640;8.894;2023-01-19T02:49:41;8.23;;;4.80;;
3959;SDS011;1994;48.640;8.894;2023-01-19T02:52:07;14.70;;;6.17;;
3959;SDS011;1994;48.640;8.894;2023-01-19T02:54:45;7.00;;;4.90;;
3959;SDS011;1994;48.640;8.894;2023-01-19T03:00:33;21.30;;;5.10;;
3959;SDS011;1994;48.640;8.894;2023-01-19T03:03:26;6.93;;;5.03;;
3959;SDS011;1994;48.640;8.894;2023-01-19T03:06:02;7.00;;;4.30;;
3959;SDS011;1994;48.640;8.894;2023-01-19T03:11:40;5.80;;;4.50;;
3959;SDS011;1994;48.640;8.894;2023-01-19T03:14:11;9.10;;;4.13;;
3959;SDS011;1994;48.640;8.894;2023-01-19T03:16:46;5.40;;;4.40;;
3959;SDS011;1994;48.640;8.894;2023-01-19T03:19:26;7.80;;;5.30;;
3959;SDS011;1994;48.640;8.894;2023-01-19T03:21:59;7.80;;;5.50;;
3959;SDS011;1994;48.640;8.894;2023-01-19T03:24:39;8.00;;;5.40;;
3959;SDS011;1994;48.640;8.894;2023-01-19T03:27:10;9.03;;;5.03;;
3959;SDS011;1994;48.640;8.894;2023-01-19T03:29:50;7.63;;;5.03;;
3959;SDS011;1994;48.640;8.894;2023-01-19T03:32:31;6.63;;;5.30;;
3959;SDS011;1994;48.640;8.894;2023-01-19T03:35:07;9.53;;;5.43;;
3959;SDS011;1994;48.640;8.894;2023-01-19T03:37:39;7.33;;;5.87;;
3959;SDS011;1994;48.640;8.894;2023-01-19T03:40:08;8.63;;;5.23;;
3959;SDS011;1994;48.640;8.894;2023-01-19T03:42:35;8.77;;;5.03;;
3959;SDS011;1994;48.640;8.894;2023-01-19T03:45:03;10.10;;;5.80;;
3959;SDS011;1994;48.640;8.894;2023-01-19T03:47:30;7.60;;;5.10;;
3959;SDS011;1994;48.640;8.894;2023-01-19T03:49:56;6.97;;;4.10;;
3959;SDS011;1994;48.640;8.894;2023-01-19T03:52:29;10.20;;;5.40;;
3959;SDS011;1994;48.640;8.894;2023-01-19T03:54:58;7.30;;;5.70;;
3959;SDS011;1994;48.640;8.894;2023-01-19T03:57:32;8.70;;;5.93;;
3959;SDS011;1994;48.640;8.894;2023-01-19T03:59:59;11.47;;;5.93;;
3959;SDS011;1994;48.640;8.894;2023-01-19T04:02:25;6.20;;;5.40;;
3959;SDS011;1994;48.640;8.894;2023-01-19T04:04:51;7.47;;;5.13;;
3959;SDS011;1994;48.640;8.894;2023-01-19T04:07:22;6.70;;;4.90;;
3959;SDS011;1994;48.640;8.894;2023-01-19T04:09:48;6.47;;;4.63;;
3959;SDS011;1994;48.640;8.894;2023-01-19T04:12:14;7.40;;;4.63;;
3959;SDS011;1994;48.640;8.894;2023-01-19T04:14:40;9.83;;;4.87;;
3959;SDS011;1994;48.640;8.894;2023-01-19T04:17:11;8.20;;;4.87;;
3959;SDS011;1994;48.640;8.894;2023-01-19T04:19:38;12.47;;;6.97;;
3959;SDS011;1994;48.640;8.894;2023-01-19T04:22:03;15.03;;;6.90;;
3959;SDS011;1994;48.640;8.894;2023-01-19T04:24:32;5.67;;;4.57;;
3959;SDS011;1994;48.640;8.894;2023-01-19T04:26:59;7.30;;;5.40;;
3959;SDS011;1994;48.640;8.894;2023-01-19T04:29:25;6.50;;;5.90;;
3959;SDS011;1994;48.640;8.894;2023-01-19T04:31:50;8.40;;;4.50;;
3959;SDS011;1994;48.640;8.894;2023-01-19T04:34:16;8.37;;;5.60;;
3959;SDS011;1994;48.640;8.894;2023-01-19T04:36:42;6.93;;;5.60;;
3959;SDS011;1994;48.640;8.894;2023-01-19T04:39:09;5.03;;;3.97;;
3959;SDS011;1994;48.640;8.894;2023-01-19T04:41:35;10.20;;;6.00;;
3959;SDS011;1994;48.640;8.894;2023-01-19T04:44:01;11.17;;;6.47;;
3959;SDS011;1994;48.640;8.894;2023-01-19T04:46:29;7.97;;;5.60;;
3959;SDS011;1994;48.640;8.894;2023-01-19T04:48:55;12.90;;;7.40;;
3959;SDS011;1994;48.640;8.894;2023-01-19T04:51:21;10.20;;;5.40;;
3959;SDS011;1994;48.640;8.894;2023-01-19T04:53:49;10.10;;;6.17;;
3959;SDS011;1994;48.640;8.894;2023-01-19T04:56:15;9.03;;;5.63;;
3959;SDS011;1994;48.640;8.894;2023-01-19T04:58:43;6.80;;;4.93;;
3959;SDS011;1994;48.640;8.894;2023-01-19T05:01:09;6.43;;;4.13;;
3959;SDS011;1994;48.640;8.894;2023-01-19T05:03:35;6.87;;;4.90;;
3959;SDS011;1994;48.640;8.894;2023-01-19T05:06:01;5.57;;;4.77;;
3959;SDS011;1994;48.640;8.894;2023-01-19T05:08:27;5.60;;;4.50;;
3959;SDS011;1994;48.640;8.894;2023-01-19T05:10:55;11.27;;;5.43;;
3959;SDS011;1994;48.640;8.894;2023-01-19T05:13:30;7.73;;;5.00;;
3959;SDS011;1994;48.640;8.894;2023-01-19T05:15:57;6.00;;;4.40;;
3959;SDS011;1994;48.640;8.894;2023-01-19T05:18:23;6.13;;;5.13;;
3959;SDS011;1994;48.640;8.894;2023-01-19T05:20:48;13.67;;;7.53;;
3959;SDS011;1994;48.640;8.894;2023-01-19T05:23:14;7.87;;;5.37;;
3959;SDS011;1994;48.640;8.894;2023-01-19T05:25:41;8.73;;;5.57;;
3959;SDS011;1994;48.640;8.894;2023-01-19T05:28:07;7.00;;;4.43;;
3959;SDS011;1994;48.640;8.894;2023-01-19T05:30:36;8.13;;;5.73;;
3959;SDS011;1994;48.640;8.894;2023-01-19T05:33:02;8.83;;;5.47;;
3959;SDS011;1994;48.640;8.894;2023-01-19T05:35:28;7.87;;;6.33;;
3959;SDS011;1994;48.640;8.894;2023-01-19T05:37:53;10.37;;;6.07;;
3959;SDS011;1994;48.640;8.894;2023-01-19T05:40:19;14.43;;;6.03;;
3959;SDS011;1994;48.640;8.894;2023-01-19T05:42:48;7.90;;;4.90;;
3959;SDS011;1994;48.640;8.894;2023-01-19T05:45:13;6.60;;;4.30;;
3959;SDS011;1994;48.640;8.894;2023-01-19T05:47:39;6.00;;;4.90;;
3959;SDS011;1994;48.640;8.894;2023-01-19T05:50:05;9.20;;;5.60;;
3959;SDS011;1994;48.640;8.894;2023-01-19T05:52:31;6.97;;;5.10;;
3959;SDS011;1994;48.640;8.894;2023-01-19T05:54:57;7.67;;;4.17;;
3959;SDS011;1994;48.640;8.894;2023-01-19T05:57:23;13.87;;;6.60;;
3959;SDS011;1994;48.640;8.894;2023-01-19T05:59:48;10.50;;;5.93;;
3959;SDS011;1994;48.640;8.894;2023-01-19T06:02:14;10.70;;;6.37;;
3959;SDS011;1994;48.640;8.894;2023-01-19T06:04:40;9.53;;;5.00;;
3959;SDS011;1994;48.640;8.894;2023-01-19T06:07:05;8.80;;;5.57;;
3959;SDS011;1994;48.640;8.894;2023-01-19T06:09:31;8.20;;;4.90;;
3959;SDS011;1994;48.640;8.894;2023-01-19T06:11:57;13.60;;;6.03;;
3959;SDS011;1994;48.640;8.894;2023-01-19T06:14:24;11.53;;;7.33;;
3959;SDS011;1994;48.640;8.894;2023-01-19T06:16:51;8.30;;;4.80;;
3959;SDS011;1994;48.640;8.894;2023-01-19T06:19:17;9.40;;;5.90;;
3959;SDS011;1994;48.640;8.894;2023-01-19T06:21:47;11.17;;;5.00;;
3959;SDS011;1994;48.640;8.894;2023-01-19T06:24:16;11.57;;;6.67;;
3959;SDS011;1994;48.640;8.894;2023-01-19T06:26:41;8.20;;;5.70;;
3959;SDS011;1994;48.640;8.894;2023-01-19T06:29:08;9.40;;;6.10;;
3959;SDS011;1994;48.640;8.894;2023-01-19T06:31:35;9.30;;;5.50;;
3959;SDS011;1994;48.640;8.894;2023-01-19T06:34:02;9.20;;;5.33;;
3959;SDS011;1994;48.640;8.894;2023-01-19T06:36:28;10.70;;;6.30;;
3959;SDS011;1994;48.640;8.894;2023-01-19T06:38:53;8.93;;;5.10;;
3959;SDS011;1994;48.640;8.894;2023-01-19T06:41:19;11.07;;;6.00;;
3959;SDS011;1994;48.640;8.894;2023-01-19T06:43:45;8.93;;;6.00;;
3959;SDS011;1994;48.640;8.894;2023-01-19T06:46:10;18.53;;;5.37;;
3959;SDS011;1994;48.640;8.894;2023-01-19T06:48:37;11.83;;;5.67;;
3959;SDS011;1994;48.640;8.894;2023-01-19T06:51:03;8.03;;;5.13;;
3959;SDS011;1994;48.640;8.894;2023-01-19T06:53:30;9.83;;;6.80;;
3959;SDS011;1994;48.640;8.894;2023-01-19T06:56:00;10.10;;;6.10;;
3959;SDS011;1994;48.640;8.894;2023-01-19T06:58:27;8.70;;;5.23;;
3959;SDS011;1994;48.640;8.894;2023-01-19T07:00:53;12.20;;;6.70;;
3959;SDS011;1994;48.640;8.894;2023-01-19T07:03:20;8.03;;;6.77;;
3959;SDS011;1994;48.640;8.894;2023-01-19T07:05:50;9.83;;;6.97;;
3959;SDS011;1994;48.640;8.894;2023-01-19T07:08:17;6.13;;;5.13;;
3959;SDS011;1994;48.640;8.894;2023-01-19T07:10:43;8.70;;;5.17;;
3959;SDS011;1994;48.640;8.894;2023-01-19T07:13:09;7.30;;;5.33;;
3959;SDS011;1994;48.640;8.894;2023-01-19T07:15:35;5.27;;;4.20;;
3959;SDS011;1994;48.640;8.894;2023-01-19T07:18:09;8.33;;;5.30;;
3959;SDS011;1994;48.640;8.894;2023-01-19T07:20:35;8.53;;;5.60;;
3959;SDS011;1994;48.640;8.894;2023-01-19T07:23:02;9.80;;;6.50;;
3959;SDS011;1994;48.640;8.894;2023-01-19T07:25:30;6.40;;;4.70;;
3959;SDS011;1994;48.640;8.894;2023-01-19T07:27:57;11.20;;;5.80;;
3959;SDS011;1994;48.640;8.894;2023-01-19T07:30:24;6.77;;;4.67;;
3959;SDS011;1994;48.640;8.894;2023-01-19T07:32:50;6.30;;;4.20;;
3959;SDS011;1994;48.640;8.894;2023-01-19T07:35:18;8.90;;;5.60;;
3959;SDS011;1994;48.640;8.894;2023-01-19T07:37:45;12.43;;;5.43;;
3959;SDS011;1994;48.640;8.894;2023-01-19T07:40:11;6.93;;;4.27;;
3959;SDS011;1994;48.640;8.894;2023-01-19T07:42:46;8.60;;;4.87;;
3959;SDS011;1994;48.640;8.894;2023-01-19T07:45:15;7.47;;;5.37;;
3959;SDS011;1994;48.640;8.894;2023-01-19T07:48:00;6.40;;;5.40;;
3959;SDS011;1994;48.640;8.894;2023-01-19T07:50:29;9.83;;;4.10;;
3959;SDS011;1994;48.640;8.894;2023-01-19T07:52:55;9.30;;;5.33;;
3959;SDS011;1994;48.640;8.894;2023-01-19T07:55:21;7.80;;;4.80;;
3959;SDS011;1994;48.640;8.894;2023-01-19T07:57:48;8.07;;;4.23;;
3959;SDS011;1994;48.640;8.894;2023-01-19T08:00:17;8.60;;;5.27;;
3959;SDS011;1994;48.640;8.894;2023-01-19T08:02:49;7.73;;;5.23;;
3959;SDS011;1994;48.640;8.894;2023-01-19T08:05:16;14.00;;;6.50;;
3959;SDS011;1994;48.640;8.894;2023-01-19T08:07:43;11.10;;;6.67;;
3959;SDS011;1994;48.640;8.894;2023-01-19T08:10:14;8.93;;;4.17;;
3959;SDS011;1994;48.640;8.894;2023-01-19T08:12:42;7.27;;;4.87;;
3959;SDS011;1994;48.640;8.894;2023-01-19T08:15:08;9.57;;;5.83;;
3959;SDS011;1994;48.640;8.894;2023-01-19T08:17:37;5.57;;;4.37;;
3959;SDS011;1994;48.640;8.894;2023-01-19T08:20:03;5.27;;;4.10;;
3959;SDS011;1994;48.640;8.894;2023-01-19T08:22:30;6.20;;;4.30;;
3959;SDS011;1994;48.640;8.894;2023-01-19T08:24:56;7.47;;;3.00;;
3959;SDS011;1994;48.640;8.894;2023-01-19T08:27:22;7.40;;;5.67;;
3959;SDS011;1994;48.640;8.894;2023-01-19T08:29:47;6.67;;;4.07;;
3959;SDS011;1994;48.640;8.894;2023-01-19T08:32:13;4.90;;;3.83;;
3959;SDS011;1994;48.640;8.894;2023-01-19T08:34:39;4.90;;;4.47;;
3959;SDS011;1994;48.640;8.894;2023-01-19T08:37:04;6.40;;;5.00;;
3959;SDS011;1994;48.640;8.894;2023-01-19T08:39:30;6.90;;;5.37;;
3959;SDS011;1994;48.640;8.894;2023-01-19T08:41:56;5.43;;;4.13;;
3959;SDS011;1994;48.640;8.894;2023-01-19T08:44:23;10.83;;;4.33;;
3959;SDS011;1994;48.640;8.894;2023-01-19T08:46:48;6.30;;;4.40;;
3959;SDS011;1994;48.640;8.894;2023-01-19T08:49:14;5.50;;;3.80;;
3959;SDS011;1994;48.640;8.894;2023-01-19T08:51:41;6.93;;;4.87;;
3959;SDS011;1994;48.640;8.894;2023-01-19T08:54:10;6.33;;;4.67;;
3959;SDS011;1994;48.640;8.894;2023-01-19T08:56:35;10.53;;;5.43;;
3959;SDS011;1994;48.640;8.894;2023-01-19T08:59:01;7.57;;;4.93;;
3959;SDS011;1994;48.640;8.894;2023-01-19T09:01:27;5.63;;;3.80;;
3959;SDS011;1994;48.640;8.894;2023-01-19T09:03:53;6.37;;;4.10;;
3959;SDS011;1994;48.640;8.894;2023-01-19T09:06:18;4.53;;;3.60;;
3959;SDS011;1994;48.640;8.894;2023-01-19T09:08:45;4.30;;;3.90;;
3959;SDS011;1994;48.640;8.894;2023-01-19T09:11:12;5.33;;;4.13;;
3959;SDS011;1994;48.640;8.894;2023-01-19T09:13:39;4.20;;;3.70;;
3959;SDS011;1994;48.640;8.894;2023-01-19T09:16:06;5.80;;;4.20;;
3959;SDS011;1994;48.640;8.894;2023-01-19T09:18:33;6.13;;;4.67;;
3959;SDS011;1994;48.640;8.894;2023-01-19T09:20:59;5.80;;;4.33;;
3959;SDS011;1994;48.640;8.894;2023-01-19T09:23:26;11.97;;;6.77;;
3959;SDS011;1994;48.640;8.894;2023-01-19T09:25:56;11.20;;;6.17;;
3959;SDS011;1994;48.640;8.894;2023-01-19T09:28:25;5.60;;;4.67;;
3959;SDS011;1994;48.640;8.894;2023-01-19T09:30:52;4.73;;;3.37;;
3959;SDS011;1994;48.640;8.894;2023-01-19T09:33:18;5.40;;;4.43;;
3959;SDS011;1994;48.640;8.894;2023-01-19T09:35:44;6.30;;;3.90;;
3959;SDS011;1994;48.640;8.894;2023-01-19T09:38:12;5.67;;;4.17;;
3959;SDS011;1994;48.640;8.894;2023-01-19T09:40:42;5.73;;;4.53;;
3959;SDS011;1994;48.640;8.894;2023-01-19T09:46:02;4.33;;;3.93;;
3959;SDS011;1994;48.640;8.894;2023-01-19T09:48:47;7.23;;;5.17;;
3959;SDS011;1994;48.640;8.894;2023-01-19T09:51:24;5.07;;;3.90;;
3959;SDS011;1994;48.640;8.894;2023-01-19T09:56:40;7.10;;;3.80;;
3959;SDS011;1994;48.640;8.894;2023-01-19T09:59:27;6.40;;;4.13;;
3959;SDS011;1994;48.640;8.894;2023-01-19T10:04:42;5.70;;;4.10;;
3959;SDS011;1994;48.640;8.894;2023-01-19T10:10:44;18.00;;;9.43;;
3959;SDS011;1994;48.640;8.894;2023-01-19T10:15:59;6.33;;;4.93;;
3959;SDS011;1994;48.640;8.894;2023-01-19T10:18:48;6.20;;;4.20;;
3959;SDS011;1994;48.640;8.894;2023-01-19T10:21:25;7.33;;;5.80;;
3959;SDS011;1994;48.640;8.894;2023-01-19T10:24:20;7.00;;;4.60;;
3959;SDS011;1994;48.640;8.894;2023-01-19T10:27:20;9.20;;;5.60;;
3959;SDS011;1994;48.640;8.894;2023-01-19T10:29:54;6.73;;;3.80;;
3959;SDS011;1994;48.640;8.894;2023-01-19T10:32:25;8.67;;;4.53;;
3959;SDS011;1994;48.640;8.894;2023-01-19T10:34:57;6.27;;;4.80;;
3959;SDS011;1994;48.640;8.894;2023-01-19T10:39:57;4.33;;;3.93;;
3959;SDS011;1994;48.640;8.894;2023-01-19T10:42:38;4.67;;;3.17;;
3959;SDS011;1994;48.640;8.894;2023-01-19T10:45:21;3.03;;;2.50;;
3959;SDS011;1994;48.640;8.894;2023-01-19T10:47:50;7.13;;;3.80;;
3959;SDS011;1994;48.640;8.894;2023-01-19T10:50:26;10.60;;;4.53;;
3959;SDS011;1994;48.640;8.894;2023-01-19T10:53:01;9.87;;;3.50;;
3959;SDS011;1994;48.640;8.894;2023-01-19T10:58:04;6.80;;;4.13;;
3959;SDS011;1994;48.640;8.894;2023-01-19T11:00:50;5.20;;;4.27;;
3959;SDS011;1994;48.640;8.894;2023-01-19T11:08:40;4.23;;;3.77;;
3959;SDS011;1994;48.640;8.894;2023-01-19T11:11:08;12.23;;;4.63;;
3959;SDS011;1994;48.640;8.894;2023-01-19T11:13:36;6.33;;;3.97;;
3959;SDS011;1994;48.640;8.894;2023-01-19T11:16:13;4.40;;;4.00;;
3959;SDS011;1994;48.640;8.894;2023-01-19T11:18:54;4.10;;;3.40;;
3959;SDS011;1994;48.640;8.894;2023-01-19T11:21:25;4.93;;;3.50;;
3959;SDS011;1994;48.640;8.894;2023-01-19T11:23:55;11.17;;;3.93;;
3959;SDS011;1994;48.640;8.894;2023-01-19T11:26:25;4.03;;;3.70;;
3959;SDS011;1994;48.640;8.894;2023-01-19T11:29:17;6.27;;;4.37;;
3959;SDS011;1994;48.640;8.894;2023-01-19T11:31:46;4.90;;;3.90;;
3959;SDS011;1994;48.640;8.894;2023-01-19T11:36:55;6.80;;;3.70;;
3959;SDS011;1994;48.640;8.894;2023-01-19T11:39:44;5.17;;;3.97;;
3959;SDS011;1994;48.640;8.894;2023-01-19T11:42:15;9.40;;;4.17;;
3959;SDS011;1994;48.640;8.894;2023-01-19T11:44:57;8.80;;;4.97;;
3959;SDS011;1994;48.640;8.894;2023-01-19T11:47:46;5.07;;;3.93;;
3959;SDS011;1994;48.640;8.894;2023-01-19T11:56:02;5.73;;;4.17;;
3959;SDS011;1994;48.640;8.894;2023-01-19T11:58:32;3.70;;;3.10;;
3959;SDS011;1994;48.640;8.894;2023-01-19T12:04:10;4.93;;;4.10;;
3959;SDS011;1994;48.640;8.894;2023-01-19T12:07:01;5.83;;;3.80;;
3959;SDS011;1994;48.640;8.894;2023-01-19T12:09:33;5.37;;;3.47;;
3959;SDS011;1994;48.640;8.894;2023-01-19T12:12:08;6.93;;;4.37;;
3959;SDS011;1994;48.640;8.894;2023-01-19T12:14:58;5.50;;;3.77;;
3959;SDS011;1994;48.640;8.894;2023-01-19T12:17:34;4.13;;;3.50;;
3959;SDS011;1994;48.640;8.894;2023-01-19T12:20:24;4.30;;;3.07;;
3959;SDS011;1994;48.640;8.894;2023-01-19T12:23:14;7.73;;;3.97;;
3959;SDS011;1994;48.640;8.894;2023-01-19T12:26:17;4.03;;;3.60;;
3959;SDS011;1994;48.640;8.894;2023-01-19T12:29:03;5.13;;;3.30;;
3959;SDS011;1994;48.640;8.894;2023-01-19T12:31:35;4.27;;;3.43;;
3959;SDS011;1994;48.640;8.894;2023-01-19T12:36:50;7.00;;;3.73;;
3959;SDS011;1994;48.640;8.894;2023-01-19T12:39:20;5.00;;;3.20;;
3959;SDS011;1994;48.640;8.894;2023-01-19T12:41:47;3.93;;;2.90;;
3959;SDS011;1994;48.640;8.894;2023-01-19T12:44:28;4.60;;;3.17;;
3959;SDS011;1994;48.640;8.894;2023-01-19T12:46:58;4.10;;;3.13;;
3959;SDS011;1994;48.640;8.894;2023-01-19T12:49:50;3.47;;;3.17;;
3959;SDS011;1994;48.640;8.894;2023-01-19T12:52:39;4.60;;;2.40;;
3959;SDS011;1994;48.640;8.894;2023-01-19T12:55:36;5.47;;;3.57;;
3959;SDS011;1994;48.640;8.894;2023-01-19T12:58:06;3.37;;;3.07;;
3959;SDS011;1994;48.640;8.894;2023-01-19T13:00:46;7.97;;;3.43;;
3959;SDS011;1994;48.640;8.894;2023-01-19T13:18:42;3.40;;;3.10;;
3959;SDS011;1994;48.640;8.894;2023-01-19T13:21:13;5.47;;;2.73;;
3959;SDS011;1994;48.640;8.894;2023-01-19T13:26:36;2.97;;;2.67;;
3959;SDS011;1994;48.640;8.894;2023-01-19T13:31:58;7.73;;;4.63;;
3959;SDS011;1994;48.640;8.894;2023-01-19T13:34:52;3.53;;;2.90;;
3959;SDS011;1994;48.640;8.894;2023-01-19T13:37:26;5.17;;;3.20;;
3959;SDS011;1994;48.640;8.894;2023-01-19T13:40:02;3.87;;;2.60;;
3959;SDS011;1994;48.640;8.894;2023-01-19T13:42:31;8.00;;;2.77;;
3959;SDS011;1994;48.640;8.894;2023-01-19T13:45:15;5.50;;;2.63;;
3959;SDS011;1994;48.640;8.894;2023-01-19T13:47:49;2.67;;;2.17;;
3959;SDS011;1994;48.640;8.894;2023-01-19T13:50:20;3.47;;;2.70;;
3959;SDS011;1994;48.640;8.894;2023-01-19T13:52:49;4.23;;;3.40;;
3959;SDS011;1994;48.640;8.894;2023-01-19T13:55:18;3.23;;;2.23;;
3959;SDS011;1994;48.640;8.894;2023-01-19T13:57:45;4.20;;;2.50;;
3959;SDS011;1994;48.640;8.894;2023-01-19T14:00:25;3.67;;;2.90;;
3959;SDS011;1994;48.640;8.894;2023-01-19T14:05:47;4.13;;;2.90;;
3959;SDS011;1994;48.640;8.894;2023-01-19T14:08:16;3.53;;;2.67;;
3959;SDS011;1994;48.640;8.894;2023-01-19T14:10:46;2.53;;;2.33;;
3959;SDS011;1994;48.640;8.894;2023-01-19T14:13:22;4.50;;;2.60;;
3959;SDS011;1994;48.640;8.894;2023-01-19T14:15:55;2.50;;;2.20;;
3959;SDS011;1994;48.640;8.894;2023-01-19T14:18:30;2.20;;;2.10;;
3959;SDS011;1994;48.640;8.894;2023-01-19T14:26:04;4.40;;;2.80;;
3959;SDS011;1994;48.640;8.894;2023-01-19T14:28:54;3.47;;;2.70;;
3959;SDS011;1994;48.640;8.894;2023-01-19T14:31:23;4.70;;;3.20;;
3959;SDS011;1994;48.640;8.894;2023-01-19T14:33:54;3.60;;;3.13;;
3959;SDS011;1994;48.640;8.894;2023-01-19T14:36:35;3.70;;;3.33;;
3959;SDS011;1994;48.640;8.894;2023-01-19T14:39:03;5.50;;;3.03;;
3959;SDS011;1994;48.640;8.894;2023-01-19T14:41:39;3.40;;;2.97;;
3959;SDS011;1994;48.640;8.894;2023-01-19T14:44:29;4.20;;;3.40;;
3959;SDS011;1994;48.640;8.894;2023-01-19T14:47:01;7.70;;;4.50;;
3959;SDS011;1994;48.640;8.894;2023-01-19T14:49:33;3.77;;;2.73;;
3959;SDS011;1994;48.640;8.894;2023-01-19T14:52:05;25.13;;;9.37;;
3959;SDS011;1994;48.640;8.894;2023-01-19T14:54:58;3.90;;;3.37;;
3959;SDS011;1994;48.640;8.894;2023-01-19T14:57:27;4.30;;;2.87;;
3959;SDS011;1994;48.640;8.894;2023-01-19T14:59:53;5.37;;;3.20;;
3959;SDS011;1994;48.640;8.894;2023-01-19T15:02:19;6.30;;;3.63;;
3959;SDS011;1994;48.640;8.894;2023-01-19T15:04:48;3.40;;;2.90;;
3959;SDS011;1994;48.640;8.894;2023-01-19T15:07:17;5.10;;;3.97;;
3959;SDS011;1994;48.640;8.894;2023-01-19T15:09:45;6.60;;;3.57;;
3959;SDS011;1994;48.640;8.894;2023-01-19T15:12:12;6.40;;;3.70;;
3959;SDS011;1994;48.640;8.894;2023-01-19T15:14:40;3.30;;;3.10;;
3959;SDS011;1994;48.640;8.894;2023-01-19T15:17:08;3.10;;;2.80;;
3959;SDS011;1994;48.640;8.894;2023-01-19T15:19:52;3.00;;;2.70;;
3959;SDS011;1994;48.640;8.894;2023-01-19T15:22:19;4.23;;;2.70;;
3959;SDS011;1994;48.640;8.894;2023-01-19T15:24:47;3.00;;;2.70;;
3959;SDS011;1994;48.640;8.894;2023-01-19T15:27:13;6.70;;;3.07;;
3959;SDS011;1994;48.640;8.894;2023-01-19T15:29:39;4.03;;;3.60;;
3959;SDS011;1994;48.640;8.894;2023-01-19T15:32:12;2.60;;;2.40;;
3959;SDS011;1994;48.640;8.894;2023-01-19T15:34:41;3.77;;;2.93;;
3959;SDS011;1994;48.640;8.894;2023-01-19T15:37:07;3.23;;;2.60;;
3959;SDS011;1994;48.640;8.894;2023-01-19T15:39:33;4.20;;;3.00;;
3959;SDS011;1994;48.640;8.894;2023-01-19T15:41:59;4.17;;;2.50;;
3959;SDS011;1994;48.640;8.894;2023-01-19T15:44:25;2.53;;;2.10;;
3959;SDS011;1994;48.640;8.894;2023-01-19T15:46:51;2.93;;;1.90;;
3959;SDS011;1994;48.640;8.894;2023-01-19T15:49:34;4.00;;;2.00;;
3959;SDS011;1994;48.640;8.894;2023-01-19T15:52:00;4.50;;;2.33;;
3959;SDS011;1994;48.640;8.894;2023-01-19T15:54:26;4.70;;;3.33;;
3959;SDS011;1994;48.640;8.894;2023-01-19T15:56:52;2.80;;;2.60;;
3959;SDS011;1994;48.640;8.894;2023-01-19T15:59:17;3.07;;;2.63;;
3959;SDS011;1994;48.640;8.894;2023-01-19T16:01:43;5.00;;;2.90;;
3959;SDS011;1994;48.640;8.894;2023-01-19T16:04:14;2.50;;;2.30;;
3959;SDS011;1994;48.640;8.894;2023-01-19T16:06:40;6.10;;;3.67;;
3959;SDS011;1994;48.640;8.894;2023-01-19T16:09:06;8.73;;;2.93;;
3959;SDS011;1994;48.640;8.894;2023-01-19T16:11:32;2.70;;;2.23;;
3959;SDS011;1994;48.640;8.894;2023-01-19T16:13:59;4.50;;;2.90;;
3959;SDS011;1994;48.640;8.894;2023-01-19T16:16:25;3.83;;;3.20;;
3959;SDS011;1994;48.640;8.894;2023-01-19T16:18:54;3.00;;;2.80;;
3959;SDS011;1994;48.640;8.894;2023-01-19T16:21:21;5.20;;;3.17;;
3959;SDS011;1994;48.640;8.894;2023-01-19T16:23:47;3.90;;;3.50;;
3959;SDS011;1994;48.640;8.894;2023-01-19T16:26:24;6.87;;;3.67;;
3959;SDS011;1994;48.640;8.894;2023-01-19T16:28:55;4.60;;;3.87;;
3959;SDS011;1994;48.640;8.894;2023-01-19T16:31:25;4.83;;;4.13;;
3959;SDS011;1994;48.640;8.894;2023-01-19T16:33:52;5.77;;;4.10;;
3959;SDS011;1994;48.640;8.894;2023-01-19T16:36:22;4.93;;;4.03;;
3959;SDS011;1994;48.640;8.894;2023-01-19T16:38:56;8.80;;;4.30;;
3959;SDS011;1994;48.640;8.894;2023-01-19T16:41:24;5.27;;;4.50;;
3959;SDS011;1994;48.640;8.894;2023-01-19T16:43:51;4.53;;;4.07;;
3959;SDS011;1994;48.640;8.894;2023-01-19T16:46:20;5.70;;;3.20;;
3959;SDS011;1994;48.640;8.894;2023-01-19T16:48:52;12.03;;;6.50;;
3959;SDS011;1994;48.640;8.894;2023-01-19T16:51:25;16.27;;;10.47;;
3959;SDS011;1994;48.640;8.894;2023-01-19T16:53:51;20.87;;;9.60;;
3959;SDS011;1994;48.640;8.894;2023-01-19T16:56:17;26.57;;;13.03;;
3959;SDS011;1994;48.640;8.894;2023-01-19T16:58:43;17.47;;;11.17;;
3959;SDS011;1994;48.640;8.894;2023-01-19T17:01:10;17.60;;;11.07;;
3959;SDS011;1994;48.640;8.894;2023-01-19T17:03:40;15.23;;;8.50;;
3959;SDS011;1994;48.640;8.894;2023-01-19T17:06:10;9.90;;;8.90;;